sensor_id;sensor_type;location;lat;lon;timestamp;P1;durP1;ratioP1;P2;durP2;ratioP2
11113;SDS011;5610;52.154;9.198;2023-05-09T00:00:30;5.90;;;5.50;;
11113;SDS011;5610;52.154;9.198;2023-05-09T00:03:17;4.93;;;4.53;;
11113;SDS011;5610;52.154;9.198;2023-05-09T00:06:02;5.00;;;4.20;;
11113;SDS011;5610;52.154;9.198;2023-05-09T00:08:48;5.73;;;5.20;;
11113;SDS011;5610;52.154;9.198;2023-05-09T00:11:33;7.47;;;4.20;;
11113;SDS011;5610;52.154;9.198;2023-05-09T00:14:18;4.40;;;4.10;;
11113;SDS011;5610;52.154;9.198;2023-05-09T00:17:04;3.67;;;3.37;;
11113;SDS011;5610;52.154;9.198;2023-05-09T00:19:50;3.80;;;3.50;;
11113;SDS011;5610;52.154;9.198;2023-05-09T00:22:36;7.00;;;4.43;;
11113;SDS011;5610;52.154;9.198;2023-05-09T00:25:23;4.03;;;3.70;;
11113;SDS011;5610;52.154;9.198;2023-05-09T00:28:08;5.33;;;3.43;;
11113;SDS011;5610;52.154;9.198;2023-05-09T00:30:54;4.50;;;4.10;;
11113;SDS011;5610;52.154;9.198;2023-05-09T00:33:39;5.60;;;4.03;;
11113;SDS011;5610;52.154;9.198;2023-05-09T00:36:26;4.50;;;3.67;;
11113;SDS011;5610;52.154;9.198;2023-05-09T00:39:11;3.67;;;3.43;;
11113;SDS011;5610;52.154;9.198;2023-05-09T00:41:57;4.50;;;3.97;;
11113;SDS011;5610;52.154;9.198;2023-05-09T00:44:42;3.70;;;3.40;;
11113;SDS011;5610;52.154;9.198;2023-05-09T00:47:27;4.70;;;3.30;;
11113;SDS011;5610;52.154;9.198;2023-05-09T00:50:13;4.17;;;3.77;;
11113;SDS011;5610;52.154;9.198;2023-05-09T00:53:00;3.57;;;3.27;;
11113;SDS011;5610;52.154;9.198;2023-05-09T00:55:47;3.70;;;3.40;;
11113;SDS011;5610;52.154;9.198;2023-05-09T00:58:32;3.53;;;3.23;;
11113;SDS011;5610;52.154;9.198;2023-05-09T01:01:17;4.00;;;3.30;;
11113;SDS011;5610;52.154;9.198;2023-05-09T01:04:03;6.83;;;3.20;;
11113;SDS011;5610;52.154;9.198;2023-05-09T01:06:51;3.83;;;3.20;;
11113;SDS011;5610;52.154;9.198;2023-05-09T01:09:45;3.50;;;3.27;;
11113;SDS011;5610;52.154;9.198;2023-05-09T01:12:36;3.80;;;3.50;;
11113;SDS011;5610;52.154;9.198;2023-05-09T01:15:28;3.40;;;3.10;;
11113;SDS011;5610;52.154;9.198;2023-05-09T01:18:19;4.10;;;3.20;;
11113;SDS011;5610;52.154;9.198;2023-05-09T01:21:09;3.93;;;3.30;;
11113;SDS011;5610;52.154;9.198;2023-05-09T01:27:31;4.83;;;3.93;;
11113;SDS011;5610;52.154;9.198;2023-05-09T01:30:28;3.50;;;3.00;;
11113;SDS011;5610;52.154;9.198;2023-05-09T01:33:16;4.33;;;3.93;;
11113;SDS011;5610;52.154;9.198;2023-05-09T01:36:03;3.87;;;3.50;;
11113;SDS011;5610;52.154;9.198;2023-05-09T01:38:52;4.03;;;3.63;;
11113;SDS011;5610;52.154;9.198;2023-05-09T01:41:38;3.90;;;3.50;;
11113;SDS011;5610;52.154;9.198;2023-05-09T01:44:24;3.90;;;3.50;;
11113;SDS011;5610;52.154;9.198;2023-05-09T01:47:11;4.70;;;4.00;;
11113;SDS011;5610;52.154;9.198;2023-05-09T01:50:00;5.00;;;3.90;;
11113;SDS011;5610;52.154;9.198;2023-05-09T01:52:47;4.10;;;3.80;;
11113;SDS011;5610;52.154;9.198;2023-05-09T01:55:34;4.67;;;4.20;;
11113;SDS011;5610;52.154;9.198;2023-05-09T01:58:21;6.17;;;4.23;;
11113;SDS011;5610;52.154;9.198;2023-05-09T02:01:09;4.47;;;4.03;;
11113;SDS011;5610;52.154;9.198;2023-05-09T02:03:58;5.40;;;3.83;;
11113;SDS011;5610;52.154;9.198;2023-05-09T02:06:44;11.33;;;4.63;;
11113;SDS011;5610;52.154;9.198;2023-05-09T02:09:33;5.03;;;4.47;;
11113;SDS011;5610;52.154;9.198;2023-05-09T02:12:18;4.70;;;4.23;;
11113;SDS011;5610;52.154;9.198;2023-05-09T02:15:04;4.57;;;3.60;;
11113;SDS011;5610;52.154;9.198;2023-05-09T02:17:50;3.80;;;3.50;;
11113;SDS011;5610;52.154;9.198;2023-05-09T02:20:37;3.90;;;3.60;;
11113;SDS011;5610;52.154;9.198;2023-05-09T02:23:22;3.77;;;3.47;;
11113;SDS011;5610;52.154;9.198;2023-05-09T02:26:07;5.33;;;3.77;;
11113;SDS011;5610;52.154;9.198;2023-05-09T02:28:54;4.13;;;3.70;;
11113;SDS011;5610;52.154;9.198;2023-05-09T02:31:40;4.00;;;3.70;;
11113;SDS011;5610;52.154;9.198;2023-05-09T02:34:27;3.90;;;3.07;;
11113;SDS011;5610;52.154;9.198;2023-05-09T02:37:14;7.33;;;3.70;;
11113;SDS011;5610;52.154;9.198;2023-05-09T02:40:00;4.83;;;3.60;;
11113;SDS011;5610;52.154;9.198;2023-05-09T02:42:46;4.23;;;3.60;;
11113;SDS011;5610;52.154;9.198;2023-05-09T02:45:32;3.83;;;3.53;;
11113;SDS011;5610;52.154;9.198;2023-05-09T02:48:19;4.57;;;3.27;;
11113;SDS011;5610;52.154;9.198;2023-05-09T02:51:05;3.90;;;3.60;;
11113;SDS011;5610;52.154;9.198;2023-05-09T02:53:51;3.43;;;3.13;;
11113;SDS011;5610;52.154;9.198;2023-05-09T02:56:36;5.33;;;3.53;;
11113;SDS011;5610;52.154;9.198;2023-05-09T02:59:21;4.60;;;3.20;;
11113;SDS011;5610;52.154;9.198;2023-05-09T03:02:07;3.83;;;3.37;;
11113;SDS011;5610;52.154;9.198;2023-05-09T03:04:52;4.07;;;3.67;;
11113;SDS011;5610;52.154;9.198;2023-05-09T03:07:38;4.27;;;3.60;;
11113;SDS011;5610;52.154;9.198;2023-05-09T03:10:25;4.13;;;3.33;;
11113;SDS011;5610;52.154;9.198;2023-05-09T03:13:10;6.00;;;3.30;;
11113;SDS011;5610;52.154;9.198;2023-05-09T03:15:55;3.63;;;3.33;;
11113;SDS011;5610;52.154;9.198;2023-05-09T03:18:41;3.97;;;3.57;;
11113;SDS011;5610;52.154;9.198;2023-05-09T03:21:26;3.87;;;3.57;;
11113;SDS011;5610;52.154;9.198;2023-05-09T03:24:12;3.97;;;3.67;;
11113;SDS011;5610;52.154;9.198;2023-05-09T03:26:58;3.70;;;3.40;;
11113;SDS011;5610;52.154;9.198;2023-05-09T03:29:44;3.97;;;3.57;;
11113;SDS011;5610;52.154;9.198;2023-05-09T03:32:32;5.23;;;3.73;;
11113;SDS011;5610;52.154;9.198;2023-05-09T03:35:17;4.53;;;3.87;;
11113;SDS011;5610;52.154;9.198;2023-05-09T03:38:03;4.20;;;3.90;;
11113;SDS011;5610;52.154;9.198;2023-05-09T03:40:48;4.30;;;3.27;;
11113;SDS011;5610;52.154;9.198;2023-05-09T03:43:36;6.33;;;3.40;;
11113;SDS011;5610;52.154;9.198;2023-05-09T03:46:21;4.30;;;3.70;;
11113;SDS011;5610;52.154;9.198;2023-05-09T03:49:06;4.00;;;3.70;;
11113;SDS011;5610;52.154;9.198;2023-05-09T03:51:53;7.73;;;3.53;;
11113;SDS011;5610;52.154;9.198;2023-05-09T03:54:38;4.27;;;3.90;;
11113;SDS011;5610;52.154;9.198;2023-05-09T03:57:23;4.50;;;3.97;;
11113;SDS011;5610;52.154;9.198;2023-05-09T04:00:14;4.07;;;3.67;;
11113;SDS011;5610;52.154;9.198;2023-05-09T04:03:07;4.63;;;3.87;;
11113;SDS011;5610;52.154;9.198;2023-05-09T04:05:57;6.13;;;4.27;;
11113;SDS011;5610;52.154;9.198;2023-05-09T04:08:55;5.23;;;4.27;;
11113;SDS011;5610;52.154;9.198;2023-05-09T04:11:41;5.97;;;4.53;;
11113;SDS011;5610;52.154;9.198;2023-05-09T04:14:29;4.70;;;4.30;;
11113;SDS011;5610;52.154;9.198;2023-05-09T04:17:15;6.57;;;3.73;;
11113;SDS011;5610;52.154;9.198;2023-05-09T04:20:00;5.93;;;3.73;;
11113;SDS011;5610;52.154;9.198;2023-05-09T04:22:46;4.90;;;3.43;;
11113;SDS011;5610;52.154;9.198;2023-05-09T04:25:33;5.50;;;3.10;;
11113;SDS011;5610;52.154;9.198;2023-05-09T04:28:20;4.60;;;3.90;;
11113;SDS011;5610;52.154;9.198;2023-05-09T04:31:05;4.23;;;3.83;;
11113;SDS011;5610;52.154;9.198;2023-05-09T04:33:53;5.33;;;4.80;;
11113;SDS011;5610;52.154;9.198;2023-05-09T04:36:39;7.80;;;4.17;;
11113;SDS011;5610;52.154;9.198;2023-05-09T04:39:24;5.27;;;4.67;;
11113;SDS011;5610;52.154;9.198;2023-05-09T04:42:18;4.47;;;4.07;;
11113;SDS011;5610;52.154;9.198;2023-05-09T04:45:04;4.80;;;4.40;;
11113;SDS011;5610;52.154;9.198;2023-05-09T04:47:50;5.23;;;4.20;;
11113;SDS011;5610;52.154;9.198;2023-05-09T04:50:36;5.93;;;4.07;;
11113;SDS011;5610;52.154;9.198;2023-05-09T04:53:22;4.83;;;4.33;;
11113;SDS011;5610;52.154;9.198;2023-05-09T04:56:07;4.57;;;4.20;;
11113;SDS011;5610;52.154;9.198;2023-05-09T04:58:53;4.90;;;4.40;;
11113;SDS011;5610;52.154;9.198;2023-05-09T05:01:38;4.30;;;3.90;;
11113;SDS011;5610;52.154;9.198;2023-05-09T05:04:24;5.13;;;4.73;;
11113;SDS011;5610;52.154;9.198;2023-05-09T05:07:11;6.17;;;4.90;;
11113;SDS011;5610;52.154;9.198;2023-05-09T05:09:56;6.73;;;4.83;;
11113;SDS011;5610;52.154;9.198;2023-05-09T05:12:42;4.40;;;4.00;;
11113;SDS011;5610;52.154;9.198;2023-05-09T05:15:30;7.43;;;3.87;;
11113;SDS011;5610;52.154;9.198;2023-05-09T05:18:16;9.93;;;4.80;;
11113;SDS011;5610;52.154;9.198;2023-05-09T05:21:01;5.10;;;4.70;;
11113;SDS011;5610;52.154;9.198;2023-05-09T05:23:48;4.70;;;4.30;;
11113;SDS011;5610;52.154;9.198;2023-05-09T05:26:33;5.00;;;4.50;;
11113;SDS011;5610;52.154;9.198;2023-05-09T05:29:19;6.10;;;4.67;;
11113;SDS011;5610;52.154;9.198;2023-05-09T05:32:03;13.13;;;4.80;;
11113;SDS011;5610;52.154;9.198;2023-05-09T05:34:48;5.80;;;4.97;;
11113;SDS011;5610;52.154;9.198;2023-05-09T05:37:34;4.97;;;4.57;;
11113;SDS011;5610;52.154;9.198;2023-05-09T05:40:21;7.00;;;5.60;;
11113;SDS011;5610;52.154;9.198;2023-05-09T05:43:08;6.97;;;5.00;;
11113;SDS011;5610;52.154;9.198;2023-05-09T05:45:55;5.27;;;4.87;;
11113;SDS011;5610;52.154;9.198;2023-05-09T05:48:41;9.37;;;5.50;;
11113;SDS011;5610;52.154;9.198;2023-05-09T05:51:26;5.23;;;4.73;;
11113;SDS011;5610;52.154;9.198;2023-05-09T05:54:12;7.67;;;4.90;;
11113;SDS011;5610;52.154;9.198;2023-05-09T05:56:59;5.20;;;4.70;;
11113;SDS011;5610;52.154;9.198;2023-05-09T05:59:45;5.53;;;4.60;;
11113;SDS011;5610;52.154;9.198;2023-05-09T06:02:31;8.23;;;4.93;;
11113;SDS011;5610;52.154;9.198;2023-05-09T06:05:17;7.57;;;5.10;;
11113;SDS011;5610;52.154;9.198;2023-05-09T06:08:03;5.60;;;5.10;;
11113;SDS011;5610;52.154;9.198;2023-05-09T06:10:49;6.77;;;4.93;;
11113;SDS011;5610;52.154;9.198;2023-05-09T06:13:36;4.87;;;4.47;;
11113;SDS011;5610;52.154;9.198;2023-05-09T06:16:23;5.70;;;4.97;;
11113;SDS011;5610;52.154;9.198;2023-05-09T06:19:08;5.43;;;4.93;;
11113;SDS011;5610;52.154;9.198;2023-05-09T06:21:53;5.03;;;4.50;;
11113;SDS011;5610;52.154;9.198;2023-05-09T06:24:38;9.53;;;5.30;;
11113;SDS011;5610;52.154;9.198;2023-05-09T06:27:23;6.13;;;4.80;;
11113;SDS011;5610;52.154;9.198;2023-05-09T06:30:11;7.37;;;4.70;;
11113;SDS011;5610;52.154;9.198;2023-05-09T06:32:57;5.93;;;5.43;;
11113;SDS011;5610;52.154;9.198;2023-05-09T06:35:43;6.07;;;5.47;;
11113;SDS011;5610;52.154;9.198;2023-05-09T06:38:28;7.00;;;5.43;;
11113;SDS011;5610;52.154;9.198;2023-05-09T06:41:13;6.50;;;4.60;;
11113;SDS011;5610;52.154;9.198;2023-05-09T06:43:59;14.67;;;5.83;;
11113;SDS011;5610;52.154;9.198;2023-05-09T06:46:46;5.07;;;4.67;;
11113;SDS011;5610;52.154;9.198;2023-05-09T06:49:31;7.10;;;5.40;;
11113;SDS011;5610;52.154;9.198;2023-05-09T06:52:16;5.57;;;5.10;;
11113;SDS011;5610;52.154;9.198;2023-05-09T06:55:04;7.13;;;5.40;;
11113;SDS011;5610;52.154;9.198;2023-05-09T06:57:51;6.90;;;5.30;;
11113;SDS011;5610;52.154;9.198;2023-05-09T07:00:36;6.10;;;4.80;;
11113;SDS011;5610;52.154;9.198;2023-05-09T07:03:23;5.50;;;4.97;;
11113;SDS011;5610;52.154;9.198;2023-05-09T07:06:09;5.10;;;4.70;;
11113;SDS011;5610;52.154;9.198;2023-05-09T07:08:54;5.83;;;5.10;;
11113;SDS011;5610;52.154;9.198;2023-05-09T07:11:39;5.87;;;5.20;;
11113;SDS011;5610;52.154;9.198;2023-05-09T07:14:24;6.37;;;4.77;;
11113;SDS011;5610;52.154;9.198;2023-05-09T07:17:09;6.20;;;5.13;;
11113;SDS011;5610;52.154;9.198;2023-05-09T07:19:56;4.70;;;4.33;;
11113;SDS011;5610;52.154;9.198;2023-05-09T07:22:41;6.73;;;5.43;;
11113;SDS011;5610;52.154;9.198;2023-05-09T07:25:26;5.07;;;4.57;;
11113;SDS011;5610;52.154;9.198;2023-05-09T07:28:11;14.03;;;5.57;;
11113;SDS011;5610;52.154;9.198;2023-05-09T07:30:56;8.07;;;5.00;;
11113;SDS011;5610;52.154;9.198;2023-05-09T07:33:42;5.77;;;5.00;;
11113;SDS011;5610;52.154;9.198;2023-05-09T07:36:28;4.83;;;4.30;;
11113;SDS011;5610;52.154;9.198;2023-05-09T07:39:14;5.30;;;4.90;;
11113;SDS011;5610;52.154;9.198;2023-05-09T07:41:59;5.63;;;5.00;;
11113;SDS011;5610;52.154;9.198;2023-05-09T07:44:45;5.43;;;5.00;;
11113;SDS011;5610;52.154;9.198;2023-05-09T07:47:30;5.10;;;4.70;;
11113;SDS011;5610;52.154;9.198;2023-05-09T07:50:15;8.20;;;5.37;;
11113;SDS011;5610;52.154;9.198;2023-05-09T07:53:02;5.90;;;5.40;;
11113;SDS011;5610;52.154;9.198;2023-05-09T07:55:47;5.07;;;4.70;;
11113;SDS011;5610;52.154;9.198;2023-05-09T07:58:33;9.33;;;4.90;;
11113;SDS011;5610;52.154;9.198;2023-05-09T08:01:18;6.50;;;5.30;;
11113;SDS011;5610;52.154;9.198;2023-05-09T08:04:03;5.77;;;5.20;;
11113;SDS011;5610;52.154;9.198;2023-05-09T08:06:51;6.00;;;5.07;;
11113;SDS011;5610;52.154;9.198;2023-05-09T08:09:37;5.43;;;5.03;;
11113;SDS011;5610;52.154;9.198;2023-05-09T08:12:23;5.20;;;4.70;;
11113;SDS011;5610;52.154;9.198;2023-05-09T08:15:08;5.30;;;4.90;;
11113;SDS011;5610;52.154;9.198;2023-05-09T08:17:54;5.60;;;5.10;;
11113;SDS011;5610;52.154;9.198;2023-05-09T08:20:39;5.57;;;5.07;;
11113;SDS011;5610;52.154;9.198;2023-05-09T08:23:24;5.30;;;4.90;;
11113;SDS011;5610;52.154;9.198;2023-05-09T08:26:11;6.30;;;5.40;;
11113;SDS011;5610;52.154;9.198;2023-05-09T08:28:56;5.97;;;4.70;;
11113;SDS011;5610;52.154;9.198;2023-05-09T08:31:41;5.20;;;4.80;;
11113;SDS011;5610;52.154;9.198;2023-05-09T08:34:27;5.83;;;5.30;;
11113;SDS011;5610;52.154;9.198;2023-05-09T08:37:14;7.40;;;5.03;;
11113;SDS011;5610;52.154;9.198;2023-05-09T08:39:59;6.60;;;6.00;;
11113;SDS011;5610;52.154;9.198;2023-05-09T08:42:46;5.87;;;5.33;;
11113;SDS011;5610;52.154;9.198;2023-05-09T08:45:33;5.73;;;5.23;;
11113;SDS011;5610;52.154;9.198;2023-05-09T08:48:23;7.60;;;7.00;;
11113;SDS011;5610;52.154;9.198;2023-05-09T08:51:09;8.23;;;7.60;;
11113;SDS011;5610;52.154;9.198;2023-05-09T08:53:55;8.33;;;7.73;;
11113;SDS011;5610;52.154;9.198;2023-05-09T08:56:40;7.83;;;7.13;;
11113;SDS011;5610;52.154;9.198;2023-05-09T08:59:28;6.80;;;6.30;;
11113;SDS011;5610;52.154;9.198;2023-05-09T09:02:16;7.40;;;6.60;;
11113;SDS011;5610;52.154;9.198;2023-05-09T09:05:01;7.43;;;6.73;;
11113;SDS011;5610;52.154;9.198;2023-05-09T09:07:47;7.47;;;6.87;;
11113;SDS011;5610;52.154;9.198;2023-05-09T09:10:33;7.70;;;6.87;;
11113;SDS011;5610;52.154;9.198;2023-05-09T09:13:19;7.90;;;7.07;;
11113;SDS011;5610;52.154;9.198;2023-05-09T09:16:06;9.20;;;8.50;;
11113;SDS011;5610;52.154;9.198;2023-05-09T09:18:54;7.87;;;7.17;;
11113;SDS011;5610;52.154;9.198;2023-05-09T09:21:40;6.40;;;5.90;;
11113;SDS011;5610;52.154;9.198;2023-05-09T09:24:26;7.33;;;6.83;;
11113;SDS011;5610;52.154;9.198;2023-05-09T09:27:11;7.33;;;6.63;;
11113;SDS011;5610;52.154;9.198;2023-05-09T09:30:04;5.97;;;5.40;;
11113;SDS011;5610;52.154;9.198;2023-05-09T09:32:52;7.40;;;6.70;;
11113;SDS011;5610;52.154;9.198;2023-05-09T09:35:37;8.13;;;7.43;;
11113;SDS011;5610;52.154;9.198;2023-05-09T09:38:23;7.10;;;6.50;;
11113;SDS011;5610;52.154;9.198;2023-05-09T09:41:10;7.40;;;6.80;;
11113;SDS011;5610;52.154;9.198;2023-05-09T09:43:56;8.13;;;7.40;;
11113;SDS011;5610;52.154;9.198;2023-05-09T09:46:45;7.93;;;7.10;;
11113;SDS011;5610;52.154;9.198;2023-05-09T09:49:33;10.20;;;9.20;;
11113;SDS011;5610;52.154;9.198;2023-05-09T09:52:21;8.50;;;7.80;;
11113;SDS011;5610;52.154;9.198;2023-05-09T09:55:08;8.57;;;7.87;;
11113;SDS011;5610;52.154;9.198;2023-05-09T09:57:53;10.50;;;9.60;;
11113;SDS011;5610;52.154;9.198;2023-05-09T10:00:38;10.33;;;9.40;;
11113;SDS011;5610;52.154;9.198;2023-05-09T10:03:24;9.80;;;9.10;;
11113;SDS011;5610;52.154;9.198;2023-05-09T10:06:11;7.77;;;6.97;;
11113;SDS011;5610;52.154;9.198;2023-05-09T10:08:57;9.60;;;8.63;;
11113;SDS011;5610;52.154;9.198;2023-05-09T10:11:42;9.90;;;9.00;;
11113;SDS011;5610;52.154;9.198;2023-05-09T10:14:27;8.40;;;7.80;;
11113;SDS011;5610;52.154;9.198;2023-05-09T10:17:15;9.10;;;8.30;;
11113;SDS011;5610;52.154;9.198;2023-05-09T10:20:02;8.17;;;7.57;;
11113;SDS011;5610;52.154;9.198;2023-05-09T10:22:50;8.63;;;7.83;;
11113;SDS011;5610;52.154;9.198;2023-05-09T10:25:42;8.13;;;7.50;;
11113;SDS011;5610;52.154;9.198;2023-05-09T10:28:31;7.17;;;6.67;;
11113;SDS011;5610;52.154;9.198;2023-05-09T10:31:20;9.07;;;7.17;;
11113;SDS011;5610;52.154;9.198;2023-05-09T10:34:09;8.50;;;7.70;;
11113;SDS011;5610;52.154;9.198;2023-05-09T10:36:56;8.13;;;7.43;;
11113;SDS011;5610;52.154;9.198;2023-05-09T10:39:44;7.57;;;6.97;;
11113;SDS011;5610;52.154;9.198;2023-05-09T10:42:30;7.77;;;7.17;;
11113;SDS011;5610;52.154;9.198;2023-05-09T10:45:15;7.77;;;7.10;;
11113;SDS011;5610;52.154;9.198;2023-05-09T10:48:01;7.63;;;7.03;;
11113;SDS011;5610;52.154;9.198;2023-05-09T10:50:51;7.60;;;6.90;;
11113;SDS011;5610;52.154;9.198;2023-05-09T10:53:40;7.53;;;6.00;;
11113;SDS011;5610;52.154;9.198;2023-05-09T10:56:29;5.93;;;5.33;;
11113;SDS011;5610;52.154;9.198;2023-05-09T10:59:31;6.57;;;6.03;;
11113;SDS011;5610;52.154;9.198;2023-05-09T11:02:18;6.97;;;6.27;;
11113;SDS011;5610;52.154;9.198;2023-05-09T11:05:14;5.97;;;5.47;;
11113;SDS011;5610;52.154;9.198;2023-05-09T11:08:23;6.27;;;5.67;;
11113;SDS011;5610;52.154;9.198;2023-05-09T11:11:09;6.07;;;5.63;;
11113;SDS011;5610;52.154;9.198;2023-05-09T11:14:09;7.00;;;6.10;;
11113;SDS011;5610;52.154;9.198;2023-05-09T11:17:13;5.93;;;5.53;;
11113;SDS011;5610;52.154;9.198;2023-05-09T11:20:10;6.37;;;5.70;;
11113;SDS011;5610;52.154;9.198;2023-05-09T11:22:55;6.43;;;5.70;;
11113;SDS011;5610;52.154;9.198;2023-05-09T11:25:41;5.57;;;5.13;;
11113;SDS011;5610;52.154;9.198;2023-05-09T11:28:30;6.63;;;5.93;;
11113;SDS011;5610;52.154;9.198;2023-05-09T11:31:17;6.20;;;5.80;;
11113;SDS011;5610;52.154;9.198;2023-05-09T11:34:03;6.13;;;5.73;;
11113;SDS011;5610;52.154;9.198;2023-05-09T11:36:49;5.20;;;4.70;;
11113;SDS011;5610;52.154;9.198;2023-05-09T11:39:35;5.40;;;5.00;;
11113;SDS011;5610;52.154;9.198;2023-05-09T11:42:40;5.93;;;5.50;;
11113;SDS011;5610;52.154;9.198;2023-05-09T11:45:27;9.10;;;5.30;;
11113;SDS011;5610;52.154;9.198;2023-05-09T11:48:15;5.80;;;5.30;;
11113;SDS011;5610;52.154;9.198;2023-05-09T11:51:06;7.60;;;4.90;;
11113;SDS011;5610;52.154;9.198;2023-05-09T11:53:59;6.20;;;5.10;;
11113;SDS011;5610;52.154;9.198;2023-05-09T11:56:45;6.40;;;5.90;;
11113;SDS011;5610;52.154;9.198;2023-05-09T11:59:31;5.80;;;5.30;;
11113;SDS011;5610;52.154;9.198;2023-05-09T12:02:17;5.07;;;4.67;;
11113;SDS011;5610;52.154;9.198;2023-05-09T12:05:06;5.40;;;4.83;;
11113;SDS011;5610;52.154;9.198;2023-05-09T12:07:53;6.23;;;5.63;;
11113;SDS011;5610;52.154;9.198;2023-05-09T12:10:39;6.93;;;6.43;;
11113;SDS011;5610;52.154;9.198;2023-05-09T12:13:25;7.23;;;6.63;;
11113;SDS011;5610;52.154;9.198;2023-05-09T12:16:10;6.43;;;6.00;;
11113;SDS011;5610;52.154;9.198;2023-05-09T12:18:55;6.40;;;5.80;;
11113;SDS011;5610;52.154;9.198;2023-05-09T12:21:41;6.80;;;6.20;;
11113;SDS011;5610;52.154;9.198;2023-05-09T12:24:27;6.07;;;5.57;;
11113;SDS011;5610;52.154;9.198;2023-05-09T12:27:14;5.93;;;5.50;;
11113;SDS011;5610;52.154;9.198;2023-05-09T12:29:59;5.20;;;4.83;;
11113;SDS011;5610;52.154;9.198;2023-05-09T12:32:46;6.60;;;5.80;;
11113;SDS011;5610;52.154;9.198;2023-05-09T12:35:32;6.63;;;6.03;;
11113;SDS011;5610;52.154;9.198;2023-05-09T12:38:20;7.37;;;6.67;;
11113;SDS011;5610;52.154;9.198;2023-05-09T12:41:06;6.53;;;5.93;;
11113;SDS011;5610;52.154;9.198;2023-05-09T12:43:52;6.27;;;5.77;;
11113;SDS011;5610;52.154;9.198;2023-05-09T12:46:38;5.97;;;5.40;;
11113;SDS011;5610;52.154;9.198;2023-05-09T12:49:24;6.57;;;6.07;;
11113;SDS011;5610;52.154;9.198;2023-05-09T12:52:15;5.83;;;5.43;;
11113;SDS011;5610;52.154;9.198;2023-05-09T12:55:05;5.77;;;5.33;;
11113;SDS011;5610;52.154;9.198;2023-05-09T12:57:58;6.37;;;5.87;;
11113;SDS011;5610;52.154;9.198;2023-05-09T13:00:45;5.93;;;5.53;;
11113;SDS011;5610;52.154;9.198;2023-05-09T13:03:30;5.70;;;5.20;;
11113;SDS011;5610;52.154;9.198;2023-05-09T13:06:20;5.90;;;5.50;;
11113;SDS011;5610;52.154;9.198;2023-05-09T13:09:06;7.20;;;5.73;;
11113;SDS011;5610;52.154;9.198;2023-05-09T13:11:57;5.57;;;5.17;;
11113;SDS011;5610;52.154;9.198;2023-05-09T13:14:42;6.30;;;5.70;;
11113;SDS011;5610;52.154;9.198;2023-05-09T13:17:27;6.87;;;6.27;;
11113;SDS011;5610;52.154;9.198;2023-05-09T13:20:12;6.60;;;6.00;;
11113;SDS011;5610;52.154;9.198;2023-05-09T13:22:58;5.43;;;5.03;;
11113;SDS011;5610;52.154;9.198;2023-05-09T13:25:43;6.07;;;5.67;;
11113;SDS011;5610;52.154;9.198;2023-05-09T13:28:30;6.10;;;5.60;;
11113;SDS011;5610;52.154;9.198;2023-05-09T13:31:15;4.77;;;4.47;;
11113;SDS011;5610;52.154;9.198;2023-05-09T13:34:01;5.43;;;5.03;;
11113;SDS011;5610;52.154;9.198;2023-05-09T13:36:46;5.17;;;4.77;;
11113;SDS011;5610;52.154;9.198;2023-05-09T13:39:31;5.63;;;5.20;;
11113;SDS011;5610;52.154;9.198;2023-05-09T13:42:17;7.53;;;5.50;;
11113;SDS011;5610;52.154;9.198;2023-05-09T13:45:04;5.57;;;5.07;;
11113;SDS011;5610;52.154;9.198;2023-05-09T13:47:49;7.77;;;5.57;;
11113;SDS011;5610;52.154;9.198;2023-05-09T13:50:35;5.20;;;4.90;;
11113;SDS011;5610;52.154;9.198;2023-05-09T13:53:20;5.47;;;5.07;;
11113;SDS011;5610;52.154;9.198;2023-05-09T13:56:05;5.43;;;5.03;;
11113;SDS011;5610;52.154;9.198;2023-05-09T13:58:51;4.77;;;4.40;;
11113;SDS011;5610;52.154;9.198;2023-05-09T14:01:38;5.70;;;5.20;;
11113;SDS011;5610;52.154;9.198;2023-05-09T14:04:23;5.17;;;4.33;;
11113;SDS011;5610;52.154;9.198;2023-05-09T14:07:09;5.20;;;4.63;;
11113;SDS011;5610;52.154;9.198;2023-05-09T14:09:55;4.90;;;4.50;;
11113;SDS011;5610;52.154;9.198;2023-05-09T14:12:41;5.77;;;5.20;;
11113;SDS011;5610;52.154;9.198;2023-05-09T14:15:27;5.50;;;5.10;;
11113;SDS011;5610;52.154;9.198;2023-05-09T14:18:14;5.37;;;4.87;;
11113;SDS011;5610;52.154;9.198;2023-05-09T14:20:59;5.10;;;4.60;;
11113;SDS011;5610;52.154;9.198;2023-05-09T14:23:45;5.53;;;5.00;;
11113;SDS011;5610;52.154;9.198;2023-05-09T14:26:32;5.37;;;4.97;;
11113;SDS011;5610;52.154;9.198;2023-05-09T14:29:17;5.50;;;5.10;;
11113;SDS011;5610;52.154;9.198;2023-05-09T14:32:02;5.63;;;5.23;;
11113;SDS011;5610;52.154;9.198;2023-05-09T14:34:51;5.60;;;5.10;;
11113;SDS011;5610;52.154;9.198;2023-05-09T14:37:36;7.80;;;5.73;;
11113;SDS011;5610;52.154;9.198;2023-05-09T14:40:21;5.00;;;4.60;;
11113;SDS011;5610;52.154;9.198;2023-05-09T14:43:06;6.10;;;5.60;;
11113;SDS011;5610;52.154;9.198;2023-05-09T14:45:52;5.77;;;5.27;;
11113;SDS011;5610;52.154;9.198;2023-05-09T14:48:37;6.17;;;5.60;;
11113;SDS011;5610;52.154;9.198;2023-05-09T14:51:24;5.63;;;5.23;;
11113;SDS011;5610;52.154;9.198;2023-05-09T14:54:11;6.47;;;5.90;;
11113;SDS011;5610;52.154;9.198;2023-05-09T14:56:56;6.00;;;5.43;;
11113;SDS011;5610;52.154;9.198;2023-05-09T14:59:42;6.20;;;5.70;;
11113;SDS011;5610;52.154;9.198;2023-05-09T15:02:27;6.17;;;5.67;;
11113;SDS011;5610;52.154;9.198;2023-05-09T15:05:12;5.67;;;5.17;;
11113;SDS011;5610;52.154;9.198;2023-05-09T15:07:59;5.73;;;5.30;;
11113;SDS011;5610;52.154;9.198;2023-05-09T15:10:45;5.50;;;5.10;;
11113;SDS011;5610;52.154;9.198;2023-05-09T15:13:33;5.80;;;4.50;;
11113;SDS011;5610;52.154;9.198;2023-05-09T15:16:18;5.50;;;5.00;;
11113;SDS011;5610;52.154;9.198;2023-05-09T15:19:03;5.33;;;4.83;;
11113;SDS011;5610;52.154;9.198;2023-05-09T15:21:49;5.13;;;4.73;;
11113;SDS011;5610;52.154;9.198;2023-05-09T15:24:36;4.90;;;4.60;;
11113;SDS011;5610;52.154;9.198;2023-05-09T15:27:25;4.50;;;4.13;;
11113;SDS011;5610;52.154;9.198;2023-05-09T15:30:11;5.23;;;4.43;;
11113;SDS011;5610;52.154;9.198;2023-05-09T15:32:57;4.77;;;4.47;;
11113;SDS011;5610;52.154;9.198;2023-05-09T15:35:42;4.73;;;3.97;;
11113;SDS011;5610;52.154;9.198;2023-05-09T15:38:28;5.00;;;3.97;;
11113;SDS011;5610;52.154;9.198;2023-05-09T15:41:15;4.20;;;3.90;;
11113;SDS011;5610;52.154;9.198;2023-05-09T15:44:01;4.30;;;3.93;;
11113;SDS011;5610;52.154;9.198;2023-05-09T15:46:46;4.93;;;4.60;;
11113;SDS011;5610;52.154;9.198;2023-05-09T15:49:32;5.27;;;4.77;;
11113;SDS011;5610;52.154;9.198;2023-05-09T15:52:18;4.93;;;4.43;;
11113;SDS011;5610;52.154;9.198;2023-05-09T15:55:03;4.70;;;4.30;;
11113;SDS011;5610;52.154;9.198;2023-05-09T15:57:51;5.60;;;5.10;;
11113;SDS011;5610;52.154;9.198;2023-05-09T16:00:36;4.63;;;4.33;;
11113;SDS011;5610;52.154;9.198;2023-05-09T16:03:22;5.23;;;4.23;;
11113;SDS011;5610;52.154;9.198;2023-05-09T16:06:08;7.17;;;4.70;;
11113;SDS011;5610;52.154;9.198;2023-05-09T16:08:55;5.07;;;4.70;;
11113;SDS011;5610;52.154;9.198;2023-05-09T16:11:40;5.73;;;4.80;;
11113;SDS011;5610;52.154;9.198;2023-05-09T16:14:27;5.17;;;4.77;;
11113;SDS011;5610;52.154;9.198;2023-05-09T16:17:12;5.90;;;4.20;;
11113;SDS011;5610;52.154;9.198;2023-05-09T16:19:57;5.63;;;5.13;;
11113;SDS011;5610;52.154;9.198;2023-05-09T16:22:43;4.67;;;4.30;;
11113;SDS011;5610;52.154;9.198;2023-05-09T16:25:28;4.43;;;4.13;;
11113;SDS011;5610;52.154;9.198;2023-05-09T16:28:13;5.90;;;4.77;;
11113;SDS011;5610;52.154;9.198;2023-05-09T16:31:00;5.30;;;4.90;;
11113;SDS011;5610;52.154;9.198;2023-05-09T16:33:47;6.03;;;4.57;;
11113;SDS011;5610;52.154;9.198;2023-05-09T16:36:32;4.30;;;3.90;;
11113;SDS011;5610;52.154;9.198;2023-05-09T16:39:19;4.60;;;4.30;;
11113;SDS011;5610;52.154;9.198;2023-05-09T16:42:06;4.40;;;4.00;;
11113;SDS011;5610;52.154;9.198;2023-05-09T16:44:51;4.40;;;4.00;;
11113;SDS011;5610;52.154;9.198;2023-05-09T16:47:39;5.23;;;4.83;;
11113;SDS011;5610;52.154;9.198;2023-05-09T16:50:25;4.97;;;4.57;;
11113;SDS011;5610;52.154;9.198;2023-05-09T16:53:11;5.33;;;4.93;;
11113;SDS011;5610;52.154;9.198;2023-05-09T16:55:57;4.20;;;3.90;;
11113;SDS011;5610;52.154;9.198;2023-05-09T16:58:42;4.57;;;4.23;;
11113;SDS011;5610;52.154;9.198;2023-05-09T17:01:27;4.70;;;4.30;;